Harrison, Wisconsin
Current Conditions -  °F | °C
As of 12:35 PM on Saturday 20 Dec 2014 (Local Time) from KRRL Reporting Station
Haze Haze  
Wind Chill: 22°   Ceiling: 900
Heat Index: 27°   Visibility: 3mi
Dew Point: 25°   Wind: 5mph
Humidity: 92%   Direction: 180°S
Pressure: 30.17"   Gusts: NA
Location:  45.3595°N, 89.45°W
Report Text: KRRL 201835Z AUTO 18004KT 3SM BR OVC009 M03/M04 A3017 RMK AO2 T10261037
Loading
Personal Weather Stations






























Interactive Weather Map New forecast layout! Learn more

10-Day Weather Forecast

Advertisements
Track Severe Weather on mobile